createdAt,value
2023-03-02T00:01:34.916Z,21.75
2023-03-02T00:04:03.932Z,19.00
2023-03-02T00:06:32.391Z,19.30
2023-03-02T00:09:00.746Z,19.70
2023-03-02T00:11:30.457Z,18.67
2023-03-02T00:13:57.383Z,21.08
2023-03-02T00:16:24.304Z,20.67
2023-03-02T00:18:51.297Z,23.63
2023-03-02T00:21:17.932Z,20.33
2023-03-02T00:23:44.952Z,22.67
2023-03-02T00:26:11.642Z,21.38
2023-03-02T00:28:39.013Z,19.25
2023-03-02T00:31:06.304Z,18.35
2023-03-02T00:33:33.612Z,23.73
2023-03-02T00:36:00.975Z,24.50
2023-03-02T00:38:28.708Z,16.35
2023-03-02T00:40:56.338Z,19.65
2023-03-02T00:43:27.395Z,20.05
2023-03-02T00:45:55.450Z,16.70
2023-03-02T00:48:22.834Z,21.65
2023-03-02T00:50:49.602Z,19.30
2023-03-02T00:53:18.000Z,18.75
2023-03-02T00:55:54.184Z,22.67
2023-03-02T00:58:22.034Z,21.90
2023-03-02T01:00:48.945Z,19.13
2023-03-02T01:03:16.290Z,21.58
2023-03-02T01:05:43.204Z,23.42
2023-03-02T01:08:10.042Z,21.75
2023-03-02T01:10:37.652Z,19.00
2023-03-02T01:13:06.026Z,19.23
2023-03-02T01:15:33.580Z,20.52
2023-03-02T01:18:01.120Z,23.63
2023-03-02T01:20:28.302Z,21.20
2023-03-02T01:22:55.771Z,22.40
2023-03-02T01:25:22.472Z,19.58
2023-03-02T01:27:49.421Z,21.20
2023-03-02T01:30:16.354Z,18.88
2023-03-02T01:32:43.173Z,19.50
2023-03-02T01:35:10.237Z,19.83
2023-03-02T01:37:36.890Z,18.35
2023-03-02T01:40:06.593Z,22.05
2023-03-02T01:42:47.197Z,17.38
2023-03-02T01:45:53.555Z,21.48
2023-03-02T01:49:07.503Z,17.90
2023-03-02T01:51:54.952Z,18.65
2023-03-02T01:54:23.389Z,21.70
2023-03-02T01:56:58.868Z,20.20
2023-03-02T01:59:28.664Z,20.02
2023-03-02T02:01:58.592Z,21.65
2023-03-02T02:04:28.485Z,19.27
2023-03-02T02:07:00.851Z,20.88
2023-03-02T02:09:30.049Z,22.67
2023-03-02T02:11:56.894Z,22.25
2023-03-02T02:14:24.539Z,25.20
2023-03-02T02:16:52.980Z,21.65
2023-03-02T02:19:57.490Z,21.13
2023-03-02T02:22:36.902Z,22.92
2023-03-02T02:25:16.706Z,20.60
2023-03-02T02:27:43.375Z,22.35
2023-03-02T02:30:13.364Z,26.02
2023-03-02T02:32:43.467Z,23.83
2023-03-02T02:35:21.462Z,25.15
2023-03-02T02:37:52.627Z,21.38
2023-03-02T02:40:38.450Z,24.50
2023-03-02T02:43:07.352Z,19.95
2023-03-02T02:45:36.017Z,16.88
2023-03-02T02:48:02.928Z,22.65
2023-03-02T02:50:32.845Z,21.88
2023-03-02T02:53:12.448Z,17.63
2023-03-02T02:55:41.386Z,21.13
2023-03-02T02:58:25.475Z,20.90
2023-03-02T03:00:54.800Z,22.77
2023-03-02T03:03:30.755Z,19.63
2023-03-02T03:06:04.008Z,18.00
2023-03-02T03:08:45.989Z,20.63
2023-03-02T03:11:23.560Z,19.90
2023-03-02T03:13:57.289Z,22.48
2023-03-02T03:16:26.244Z,17.73
2023-03-02T03:18:54.766Z,20.17
2023-03-02T03:21:21.668Z,19.33
2023-03-02T03:23:49.910Z,17.13
2023-03-02T03:26:17.266Z,18.42
2023-03-02T03:28:46.577Z,18.00
2023-03-02T03:31:13.373Z,18.42
2023-03-02T03:33:40.065Z,19.50
2023-03-02T03:36:07.376Z,18.08
2023-03-02T03:38:34.137Z,16.30
2023-03-02T03:41:01.801Z,18.23
2023-03-02T03:43:28.776Z,18.73
2023-03-02T03:45:55.895Z,17.45
2023-03-02T03:48:22.646Z,16.30
2023-03-02T03:50:49.624Z,16.98
2023-03-02T03:53:16.701Z,17.98
2023-03-02T03:55:43.449Z,18.25
2023-03-02T03:58:10.094Z,19.70
2023-03-02T04:00:37.339Z,18.10
2023-03-02T04:03:08.693Z,18.95
2023-03-02T04:05:35.592Z,19.45
2023-03-02T04:08:03.469Z,17.17
2023-03-02T04:10:31.364Z,18.13
2023-03-02T04:12:58.730Z,17.60
2023-03-02T04:15:25.697Z,18.40
2023-03-02T04:17:52.785Z,20.50
2023-03-02T04:20:22.323Z,18.70
2023-03-02T04:22:54.156Z,17.30
2023-03-02T04:25:23.635Z,17.48
2023-03-02T04:27:54.486Z,19.42
2023-03-02T04:30:25.767Z,16.00
2023-03-02T04:32:53.752Z,18.55
2023-03-02T04:35:21.820Z,18.33
2023-03-02T04:37:48.708Z,16.73
2023-03-02T04:40:16.930Z,16.70
2023-03-02T04:42:44.767Z,16.17
2023-03-02T04:45:12.189Z,18.63
2023-03-02T04:47:39.162Z,21.50
2023-03-02T04:50:06.426Z,18.42
2023-03-02T04:52:33.202Z,17.88
2023-03-02T04:54:59.872Z,22.88
2023-03-02T04:57:26.513Z,21.15
2023-03-02T04:59:53.181Z,30.95
2023-03-02T05:02:19.972Z,20.63
2023-03-02T05:04:46.636Z,22.60
2023-03-02T05:07:13.270Z,19.30
2023-03-02T05:09:39.935Z,18.92
2023-03-02T05:12:06.774Z,19.35
2023-03-02T05:14:33.796Z,20.23
2023-03-02T05:17:00.436Z,19.58
2023-03-02T05:19:27.279Z,19.45
2023-03-02T05:21:53.915Z,21.13
2023-03-02T05:24:20.582Z,19.60
2023-03-02T05:26:47.319Z,20.15
2023-03-02T05:29:13.972Z,18.60
2023-03-02T05:31:43.622Z,18.17
2023-03-02T05:34:13.451Z,24.10
2023-03-02T05:36:40.438Z,22.33
2023-03-02T05:39:07.311Z,20.08
2023-03-02T05:41:34.179Z,18.80
2023-03-02T05:44:01.323Z,20.58
2023-03-02T05:46:28.391Z,19.33
2023-03-02T05:48:55.051Z,18.73
2023-03-02T05:51:21.788Z,18.50
2023-03-02T05:53:48.522Z,19.17
2023-03-02T05:56:15.324Z,20.75
2023-03-02T05:58:41.992Z,23.63
2023-03-02T06:01:14.791Z,18.42
2023-03-02T06:03:42.565Z,19.85
2023-03-02T06:06:13.543Z,19.58
2023-03-02T06:08:41.840Z,21.67
2023-03-02T06:11:09.390Z,19.50
2023-03-02T06:13:37.144Z,22.90
2023-03-02T06:16:04.235Z,26.75
2023-03-02T06:18:31.036Z,20.98
2023-03-02T06:20:57.875Z,18.45
2023-03-02T06:23:24.524Z,20.42
2023-03-02T06:25:51.228Z,20.08
2023-03-02T06:28:19.983Z,18.73
2023-03-02T06:30:52.275Z,19.00
2023-03-02T06:33:21.368Z,22.25
2023-03-02T06:35:49.382Z,16.55
2023-03-02T06:38:16.533Z,21.48
2023-03-02T06:40:43.339Z,18.67
2023-03-02T06:43:10.160Z,19.52
2023-03-02T06:45:37.877Z,18.10
2023-03-02T06:48:05.352Z,21.20
2023-03-02T06:50:32.841Z,23.60
2023-03-02T06:52:59.905Z,22.00
2023-03-02T06:55:26.629Z,17.48
2023-03-02T06:57:53.605Z,20.13
2023-03-02T07:00:28.129Z,18.67
2023-03-02T07:02:56.089Z,20.98
2023-03-02T07:05:24.394Z,19.30
2023-03-02T07:07:51.401Z,20.10
2023-03-02T07:10:18.243Z,20.17
2023-03-02T07:12:45.027Z,18.02
2023-03-02T07:15:14.291Z,20.77
2023-03-02T07:17:43.752Z,21.15
2023-03-02T07:20:12.760Z,21.70
2023-03-02T07:22:40.406Z,20.60
2023-03-02T07:25:08.233Z,18.17
2023-03-02T07:27:35.108Z,21.40
2023-03-02T07:30:01.863Z,16.90
2023-03-02T07:32:28.599Z,18.15
2023-03-02T07:34:55.376Z,20.60
2023-03-02T07:37:22.095Z,17.70
2023-03-02T07:39:49.632Z,18.77
2023-03-02T07:42:17.266Z,19.80
2023-03-02T07:44:47.264Z,17.58
2023-03-02T07:47:14.024Z,17.35
2023-03-02T07:49:40.747Z,18.35
2023-03-02T07:52:07.623Z,19.83
2023-03-02T07:54:34.306Z,18.50
2023-03-02T07:57:01.025Z,21.58
2023-03-02T07:59:28.447Z,16.58
2023-03-02T08:01:55.998Z,17.98
2023-03-02T08:04:23.007Z,15.23
2023-03-02T08:06:49.733Z,17.42
2023-03-02T08:09:17.056Z,18.90
2023-03-02T08:11:44.920Z,16.13
2023-03-02T08:14:11.705Z,17.23
2023-03-02T08:16:39.448Z,21.45
2023-03-02T08:19:07.066Z,17.48
2023-03-02T08:21:34.089Z,16.20
2023-03-02T08:24:00.995Z,15.50
2023-03-02T08:26:27.715Z,14.82
2023-03-02T08:28:54.426Z,19.42
2023-03-02T08:31:21.131Z,18.20
2023-03-02T08:33:47.829Z,17.08
2023-03-02T08:36:17.390Z,18.15
2023-03-02T08:38:44.732Z,17.92
2023-03-02T08:41:14.987Z,18.73
2023-03-02T08:43:42.119Z,17.00
2023-03-02T08:46:11.491Z,14.63
2023-03-02T08:48:38.577Z,16.88
2023-03-02T08:51:09.135Z,19.30
2023-03-02T08:53:39.228Z,19.90
2023-03-02T08:56:14.679Z,16.10
2023-03-02T08:58:41.312Z,15.85
2023-03-02T09:01:24.100Z,17.33
2023-03-02T09:03:51.296Z,13.85
2023-03-02T09:06:18.705Z,17.00
2023-03-02T09:08:45.737Z,18.10
2023-03-02T09:11:12.702Z,20.25
2023-03-02T09:13:39.918Z,16.13
2023-03-02T09:16:08.600Z,16.70
2023-03-02T09:18:36.295Z,17.35
2023-03-02T09:21:03.965Z,19.63
2023-03-02T09:23:32.793Z,19.35
2023-03-02T09:25:59.575Z,15.55
2023-03-02T09:28:26.358Z,14.43
2023-03-02T09:30:55.341Z,13.65
2023-03-02T09:33:21.970Z,17.35
2023-03-02T09:35:49.417Z,18.30
2023-03-02T09:38:18.259Z,17.88
2023-03-02T09:41:13.760Z,14.95
2023-03-02T09:43:40.412Z,18.38
2023-03-02T09:46:44.341Z,17.73
2023-03-02T09:49:36.319Z,16.60
2023-03-02T09:52:02.933Z,18.23
2023-03-02T09:54:31.008Z,20.02
2023-03-02T09:56:59.326Z,17.30
2023-03-02T09:59:28.960Z,20.80
2023-03-02T10:02:10.879Z,14.15
2023-03-02T10:05:07.306Z,19.00
2023-03-02T10:07:38.914Z,16.10
2023-03-02T10:10:25.245Z,18.70
2023-03-02T10:12:51.852Z,19.67
2023-03-02T10:15:31.580Z,16.63
2023-03-02T10:18:06.863Z,18.60
2023-03-02T10:20:55.063Z,15.10
2023-03-02T10:24:03.480Z,18.08
2023-03-02T10:26:40.747Z,15.18
2023-03-02T10:29:10.403Z,17.67
2023-03-02T10:31:40.584Z,17.92
2023-03-02T10:34:11.469Z,16.35
2023-03-02T10:36:41.349Z,16.45
2023-03-02T10:39:16.226Z,17.80
2023-03-02T10:42:18.448Z,15.88
2023-03-02T10:44:50.417Z,15.30
2023-03-02T10:47:23.167Z,16.00
2023-03-02T10:49:50.933Z,16.40
2023-03-02T10:52:23.158Z,14.40
2023-03-02T10:54:52.715Z,13.88
2023-03-02T10:57:30.906Z,17.63
2023-03-02T11:00:01.439Z,15.85
2023-03-02T11:02:29.509Z,14.65
2023-03-02T11:05:19.522Z,14.70
2023-03-02T11:07:54.081Z,15.57
2023-03-02T11:10:22.899Z,14.63
2023-03-02T11:12:51.903Z,16.52
2023-03-02T11:15:26.496Z,18.27
2023-03-02T11:18:01.897Z,16.85
2023-03-02T11:20:42.602Z,15.48
2023-03-02T11:23:26.568Z,15.75
2023-03-02T11:25:57.366Z,15.02
2023-03-02T11:28:37.028Z,13.00
2023-03-02T11:31:10.327Z,16.83
2023-03-02T11:33:49.941Z,17.25
2023-03-02T11:36:22.161Z,15.52
2023-03-02T11:38:55.186Z,14.85
2023-03-02T11:41:29.929Z,15.60
2023-03-02T11:44:01.409Z,12.73
2023-03-02T11:46:33.715Z,17.08
2023-03-02T11:51:37.868Z,16.40
2023-03-02T11:54:12.200Z,14.55
2023-03-02T11:56:39.996Z,19.33
2023-03-02T11:59:15.767Z,21.85
2023-03-02T12:01:48.012Z,11.43
2023-03-02T12:06:56.016Z,17.00
2023-03-02T12:09:22.724Z,16.17
2023-03-02T12:12:00.101Z,19.10
2023-03-02T12:14:38.255Z,18.40
2023-03-02T12:17:06.349Z,14.88
2023-03-02T12:19:42.612Z,15.13
2023-03-02T12:22:12.455Z,12.65
2023-03-02T12:24:42.232Z,13.75
2023-03-02T12:27:21.046Z,18.73
2023-03-02T12:29:52.125Z,12.40
2023-03-02T12:32:18.837Z,14.05
2023-03-02T12:34:53.889Z,12.18
2023-03-02T12:37:47.201Z,12.15
2023-03-02T12:40:43.330Z,14.55
2023-03-02T12:43:37.892Z,14.13
2023-03-02T12:46:28.500Z,21.90
2023-03-02T12:48:58.289Z,12.55
2023-03-02T12:51:28.021Z,15.90
2023-03-02T12:54:12.490Z,14.27
2023-03-02T12:56:39.480Z,13.15
2023-03-02T12:59:06.731Z,11.40
2023-03-02T13:01:34.420Z,16.13
2023-03-02T13:04:01.184Z,17.08
2023-03-02T13:06:31.838Z,17.80
2023-03-02T13:09:00.482Z,16.30
2023-03-02T13:11:33.644Z,15.77
2023-03-02T13:14:03.642Z,15.20
2023-03-02T13:16:34.194Z,13.15
2023-03-02T13:19:09.887Z,15.32
2023-03-02T13:21:38.607Z,14.73
2023-03-02T13:24:31.167Z,15.32
2023-03-02T13:29:32.555Z,11.77
2023-03-02T13:32:21.586Z,13.23
2023-03-02T13:34:59.579Z,11.88
2023-03-02T13:37:43.817Z,18.90
2023-03-02T13:40:23.673Z,14.63
2023-03-02T13:42:51.472Z,13.68
2023-03-02T13:45:25.074Z,14.23
2023-03-02T13:47:52.603Z,11.25
2023-03-02T13:50:25.691Z,14.45
2023-03-02T13:52:57.667Z,12.27
2023-03-02T13:55:25.235Z,15.80
2023-03-02T13:57:53.397Z,13.68
2023-03-02T14:00:28.030Z,14.82
2023-03-02T14:02:54.716Z,16.67
2023-03-02T14:05:24.584Z,13.88
2023-03-02T14:07:51.251Z,13.27
2023-03-02T14:10:19.565Z,14.25
2023-03-02T14:12:56.700Z,17.50
2023-03-02T14:15:23.747Z,15.77
2023-03-02T14:17:50.530Z,14.43
2023-03-02T14:20:19.894Z,15.77
2023-03-02T14:22:48.114Z,15.25
2023-03-02T14:25:15.021Z,13.55
2023-03-02T14:27:43.035Z,15.50
2023-03-02T14:30:27.822Z,14.32
2023-03-02T14:32:54.515Z,17.33
2023-03-02T14:35:22.681Z,17.52
2023-03-02T14:37:49.842Z,11.70
2023-03-02T14:40:28.172Z,15.32
2023-03-02T14:42:55.107Z,14.98
2023-03-02T14:45:23.094Z,13.55
2023-03-02T14:47:49.794Z,11.07
2023-03-02T14:50:17.371Z,12.32
2023-03-02T14:52:53.160Z,14.25
2023-03-02T14:55:29.183Z,14.23
2023-03-02T14:57:58.797Z,15.88
2023-03-02T15:00:26.144Z,16.00
2023-03-02T15:02:52.954Z,16.75
2023-03-02T15:05:20.188Z,13.10
2023-03-02T15:07:47.946Z,12.65
2023-03-02T15:10:20.505Z,15.30
2023-03-02T15:12:47.170Z,14.40
2023-03-02T15:15:14.112Z,13.88
2023-03-02T15:17:41.299Z,15.00
2023-03-02T15:20:13.853Z,16.17
2023-03-02T15:22:40.564Z,12.95
2023-03-02T15:25:07.785Z,12.95
2023-03-02T15:27:34.441Z,14.77
2023-03-02T15:30:01.090Z,15.20
2023-03-02T15:32:27.897Z,13.93
2023-03-02T15:34:54.719Z,15.65
2023-03-02T15:37:21.482Z,15.95
2023-03-02T15:39:53.371Z,13.35
2023-03-02T15:42:20.100Z,16.38
2023-03-02T15:44:46.773Z,12.48
2023-03-02T15:47:13.442Z,17.52
2023-03-02T15:49:40.097Z,14.93
2023-03-02T15:52:06.768Z,12.90
2023-03-02T15:54:33.673Z,14.90
2023-03-02T15:57:00.296Z,16.00
2023-03-02T15:59:29.330Z,14.82
2023-03-02T16:01:59.522Z,13.88
2023-03-02T16:04:27.177Z,15.18
2023-03-02T16:06:55.002Z,12.90
2023-03-02T16:09:22.346Z,13.30
2023-03-02T16:11:49.734Z,17.00
2023-03-02T16:14:16.784Z,13.60
2023-03-02T16:16:44.977Z,13.65
2023-03-02T16:19:14.491Z,15.13
2023-03-02T16:21:41.769Z,16.20
2023-03-02T16:24:09.118Z,13.45
2023-03-02T16:26:37.868Z,17.65
2023-03-02T16:29:08.017Z,14.65
2023-03-02T16:31:37.828Z,14.02
2023-03-02T16:34:09.465Z,14.63
2023-03-02T16:36:37.901Z,14.60
2023-03-02T16:39:06.339Z,13.85
2023-03-02T16:41:33.443Z,16.75
2023-03-02T16:44:01.035Z,17.30
2023-03-02T16:46:30.344Z,15.15
2023-03-02T16:48:57.657Z,15.45
2023-03-02T16:51:24.947Z,18.02
2023-03-02T16:53:52.024Z,22.88
2023-03-02T16:56:18.818Z,22.52
2023-03-02T16:58:45.717Z,22.17
2023-03-02T17:01:15.423Z,23.48
2023-03-02T17:03:42.757Z,22.33
2023-03-02T17:06:11.811Z,20.33
2023-03-02T17:08:38.729Z,21.23
2023-03-02T17:11:05.974Z,20.98
2023-03-02T17:13:32.886Z,22.73
2023-03-02T17:15:59.664Z,28.08
2023-03-02T17:18:30.375Z,23.33
2023-03-02T17:21:00.751Z,25.13
2023-03-02T17:23:28.006Z,22.60
2023-03-02T17:25:56.138Z,29.23
2023-03-02T17:28:23.184Z,25.50
2023-03-02T17:30:50.435Z,25.80
2023-03-02T17:33:18.266Z,25.52
2023-03-02T17:35:46.310Z,30.95
2023-03-02T17:38:14.421Z,27.13
2023-03-02T17:40:42.007Z,25.25
2023-03-02T17:43:08.810Z,25.63
2023-03-02T17:45:35.696Z,26.73
2023-03-02T17:48:02.406Z,24.75
2023-03-02T17:50:31.899Z,25.60
2023-03-02T17:52:59.873Z,24.17
2023-03-02T17:55:26.901Z,27.70
2023-03-02T17:57:53.716Z,23.75
2023-03-02T18:00:22.288Z,29.27
2023-03-02T18:02:49.849Z,29.48
2023-03-02T18:05:16.785Z,22.85
2023-03-02T18:07:43.470Z,25.25
2023-03-02T18:10:11.064Z,25.50
2023-03-02T18:12:37.755Z,27.85
2023-03-02T18:15:05.094Z,29.17
2023-03-02T18:17:31.782Z,30.90
2023-03-02T18:19:58.445Z,26.63
2023-03-02T18:22:25.282Z,25.42
2023-03-02T18:24:52.993Z,25.98
2023-03-02T18:27:20.292Z,33.03
2023-03-02T18:29:46.972Z,30.08
2023-03-02T18:32:14.376Z,27.63
2023-03-02T18:34:41.188Z,25.50
2023-03-02T18:37:08.181Z,32.95
2023-03-02T18:39:35.198Z,32.03
2023-03-02T18:42:01.830Z,27.60
2023-03-02T18:44:30.312Z,27.10
2023-03-02T18:46:57.423Z,30.23
2023-03-02T18:49:24.624Z,28.42
2023-03-02T18:51:51.370Z,29.05
2023-03-02T18:54:18.138Z,28.00
2023-03-02T18:56:44.851Z,32.15
2023-03-02T18:59:13.237Z,34.05
2023-03-02T19:01:40.345Z,30.42
2023-03-02T19:04:07.103Z,31.38
2023-03-02T19:06:34.331Z,27.63
2023-03-02T19:09:01.026Z,32.08
2023-03-02T19:11:27.805Z,31.15
2023-03-02T19:13:54.527Z,31.75
2023-03-02T19:16:21.291Z,31.05
2023-03-02T19:18:48.749Z,24.70
2023-03-02T19:21:16.219Z,33.25
2023-03-02T19:23:44.548Z,29.95
2023-03-02T19:26:12.325Z,35.22
2023-03-02T19:28:39.946Z,35.70
2023-03-02T19:31:09.398Z,35.60
2023-03-02T19:33:37.748Z,34.38
2023-03-02T19:36:05.667Z,30.35
2023-03-02T19:38:32.968Z,28.33
2023-03-02T19:41:00.750Z,30.27
2023-03-02T19:43:28.132Z,28.45
2023-03-02T19:45:54.890Z,30.25
2023-03-02T19:48:22.082Z,30.90
2023-03-02T19:50:48.781Z,31.40
2023-03-02T19:53:16.975Z,32.80
2023-03-02T19:55:44.409Z,28.95
2023-03-02T19:58:17.198Z,29.55
2023-03-02T20:00:45.201Z,31.10
2023-03-02T20:03:13.020Z,29.50
2023-03-02T20:05:39.708Z,27.67
2023-03-02T20:08:07.582Z,32.30
2023-03-02T20:10:37.926Z,31.00
2023-03-02T20:13:06.507Z,33.00
2023-03-02T20:15:38.026Z,33.75
2023-03-02T20:18:07.462Z,34.30
2023-03-02T20:20:34.751Z,30.70
2023-03-02T20:23:01.560Z,33.97
2023-03-02T20:25:28.877Z,33.50
2023-03-02T20:27:55.852Z,33.45
2023-03-02T20:30:45.127Z,33.65
2023-03-02T20:33:12.664Z,35.60
2023-03-02T20:35:42.915Z,30.10
2023-03-02T20:38:15.911Z,34.95
2023-03-02T20:40:43.013Z,34.88
2023-03-02T20:43:09.761Z,34.35
2023-03-02T20:45:36.417Z,35.92
2023-03-02T20:48:05.479Z,40.63
2023-03-02T20:50:33.764Z,35.80
2023-03-02T20:53:01.042Z,34.40
2023-03-02T20:55:28.363Z,34.13
2023-03-02T20:57:56.559Z,36.30
2023-03-02T21:00:27.202Z,35.95
2023-03-02T21:02:54.628Z,37.70
2023-03-02T21:05:21.613Z,35.50
2023-03-02T21:07:49.368Z,36.92
2023-03-02T21:10:20.034Z,42.90
2023-03-02T21:12:49.060Z,34.90
2023-03-02T21:15:16.910Z,34.45
2023-03-02T21:17:43.547Z,37.50
2023-03-02T21:20:12.270Z,39.58
2023-03-02T21:22:38.954Z,38.08
2023-03-02T21:25:09.001Z,37.60
2023-03-02T21:27:36.833Z,35.35
2023-03-02T21:30:09.204Z,35.50
2023-03-02T21:35:02.800Z,35.20
2023-03-02T21:37:29.472Z,34.47
2023-03-02T21:39:56.116Z,34.63
2023-03-02T21:42:22.844Z,35.20
2023-03-02T21:44:49.559Z,37.35
2023-03-02T21:47:16.247Z,40.40
2023-03-02T21:49:42.894Z,40.20
2023-03-02T21:52:09.634Z,37.15
2023-03-02T21:54:36.656Z,40.10
2023-03-02T21:57:03.528Z,36.17
2023-03-02T21:59:30.888Z,37.00
2023-03-02T22:01:57.643Z,37.47
2023-03-02T22:04:24.346Z,37.65
2023-03-02T22:06:51.167Z,39.17
2023-03-02T22:09:18.037Z,38.13
2023-03-02T22:11:45.381Z,38.30
2023-03-02T22:14:14.796Z,38.80
2023-03-02T22:16:45.344Z,34.53
2023-03-02T22:19:30.484Z,36.85
2023-03-02T22:22:00.214Z,42.55
2023-03-02T22:24:32.573Z,36.05
2023-03-02T22:27:19.163Z,36.95
2023-03-02T22:29:47.328Z,39.83
2023-03-02T22:32:20.148Z,44.15
2023-03-02T22:34:50.191Z,37.95
2023-03-02T22:37:26.598Z,39.47
2023-03-02T22:40:00.833Z,37.17
2023-03-02T22:42:30.900Z,35.55
2023-03-02T22:45:14.898Z,38.45
2023-03-02T22:47:42.866Z,36.50
2023-03-02T22:50:23.276Z,37.55
2023-03-02T22:52:51.133Z,39.53
2023-03-02T22:55:38.629Z,41.28
2023-03-02T22:58:27.645Z,37.70
2023-03-02T23:00:54.832Z,39.20
2023-03-02T23:03:39.514Z,40.90
2023-03-02T23:06:27.632Z,43.10
2023-03-02T23:08:57.226Z,38.63
2023-03-02T23:11:24.874Z,38.88
2023-03-02T23:13:53.033Z,42.90
2023-03-02T23:16:25.775Z,41.60
2023-03-02T23:18:55.976Z,44.05
2023-03-02T23:21:28.561Z,42.00
2023-03-02T23:23:55.754Z,38.22
2023-03-02T23:26:22.574Z,42.55
2023-03-02T23:28:50.973Z,44.30
2023-03-02T23:31:21.312Z,38.25
2023-03-02T23:33:48.430Z,38.17
2023-03-02T23:36:15.425Z,39.67
2023-03-02T23:38:42.074Z,40.05
2023-03-02T23:41:09.997Z,40.45
2023-03-02T23:43:36.675Z,41.13
2023-03-02T23:46:03.699Z,44.42
2023-03-02T23:48:30.535Z,41.88
2023-03-02T23:50:57.423Z,40.50
2023-03-02T23:53:24.167Z,41.72
2023-03-02T23:55:53.736Z,44.30
2023-03-02T23:58:20.959Z,42.30
